CSH4590 ZSLO-ZYSD
Flight info
| Callsign | CSH4590 |
|---|---|
| Flight time | N/A |
| Altitude | 33100 |
| Route | LEKUV A599 JTN W116 PK G455 HSH V2 ODULO B221 XDX W174 FD W172 TEKAM V68 DOBGA W202 UDETI A588 LEMOT W657 APESI G341 UPNUX UGABI W39 MDJ |
| Aircraft | B738/M-SDE2E3FGHIM3RWY/EB1 |
Departure
| Time | 2026-05-05 09:26 |
|---|---|
| Airport | Liancheng Guanzhishan Airport (ZSLO) |
Arrival
| Time | N/A |
|---|---|
| Airport | Suifenhe Dongning Airport (ZYSD) |
| Time | Latitude | Longitude | Altitude | Speed | Heading |
|---|---|---|---|---|---|
| 2026-05-05 09:03 | 25.68253 | 116.75263 | 1237 ft | 0 kts | 22° |
| 2026-05-05 09:20 | 25.68258 | 116.75265 | 1240 ft | 2 kts | 13° |
| 2026-05-05 09:20 | 25.68264 | 116.75252 | 1248 ft | 2 kts | 265° |
| 2026-05-05 09:21 | 25.68249 | 116.75237 | 1247 ft | 4 kts | 219° |
| 2026-05-05 09:21 | 25.68220 | 116.75210 | 1245 ft | 7 kts | 225° |
| 2026-05-05 09:21 | 25.68219 | 116.75140 | 1238 ft | 12 kts | 290° |
| 2026-05-05 09:21 | 25.68257 | 116.75044 | 1237 ft | 13 kts | 293° |
| 2026-05-05 09:22 | 25.68289 | 116.74964 | 1239 ft | 10 kts | 311° |
| 2026-05-05 09:22 | 25.68353 | 116.74961 | 1245 ft | 10 kts | 25° |
| 2026-05-05 09:22 | 25.68415 | 116.74990 | 1257 ft | 10 kts | 22° |
| 2026-05-05 09:22 | 25.68477 | 116.75019 | 1250 ft | 11 kts | 22° |
| 2026-05-05 09:23 | 25.68542 | 116.75054 | 1242 ft | 10 kts | 42° |
| 2026-05-05 09:23 | 25.68580 | 116.75095 | 1245 ft | 7 kts | 18° |
| 2026-05-05 09:23 | 25.68616 | 116.75074 | 1243 ft | 7 kts | 278° |
| 2026-05-05 09:23 | 25.68584 | 116.75052 | 1244 ft | 7 kts | 164° |
| 2026-05-05 09:24 | 25.68537 | 116.75047 | 1246 ft | 7 kts | 202° |
| 2026-05-05 09:24 | 25.68533 | 116.75045 | 1238 ft | 0 kts | 202° |
| 2026-05-05 09:25 | 25.68481 | 116.75021 | 1248 ft | 33 kts | 202° |
| 2026-05-05 09:25 | 25.68028 | 116.74814 | 1235 ft | 106 kts | 202° |
| 2026-05-05 09:25 | 25.67166 | 116.74426 | 1233 ft | 164 kts | 200° |
| 2026-05-05 09:25 | 25.66058 | 116.73944 | 1807 ft | 173 kts | 201° |
| 2026-05-05 09:26 | 25.64931 | 116.73425 | 2586 ft | 176 kts | 197° |
| 2026-05-05 09:26 | 25.63729 | 116.73205 | 3361 ft | 176 kts | 185° |
| 2026-05-05 09:26 | 25.62501 | 116.73064 | 4077 ft | 179 kts | 186° |
| 2026-05-05 09:26 | 25.61251 | 116.72901 | 4778 ft | 186 kts | 188° |
| 2026-05-05 09:27 | 25.59901 | 116.72711 | 5303 ft | 199 kts | 188° |
| 2026-05-05 09:27 | 25.58523 | 116.72516 | 5873 ft | 204 kts | 189° |
| 2026-05-05 09:27 | 25.57103 | 116.72311 | 6420 ft | 208 kts | 190° |
| 2026-05-05 09:27 | 25.55673 | 116.72066 | 6964 ft | 208 kts | 199° |
| 2026-05-05 09:28 | 25.54432 | 116.71301 | 7512 ft | 203 kts | 225° |
| 2026-05-05 09:28 | 25.53584 | 116.70096 | 8148 ft | 196 kts | 246° |
| 2026-05-05 09:28 | 25.53245 | 116.68656 | 8740 ft | 193 kts | 269° |
| 2026-05-05 09:28 | 25.53514 | 116.67217 | 9299 ft | 196 kts | 292° |
| 2026-05-05 09:29 | 25.54342 | 116.65998 | 9884 ft | 203 kts | 313° |
| 2026-05-05 09:29 | 25.55601 | 116.65204 | 10351 ft | 216 kts | 334° |
| 2026-05-05 09:29 | 25.57124 | 116.64980 | 10806 ft | 234 kts | 2° |
| 2026-05-05 09:29 | 25.58643 | 116.65785 | 11206 ft | 254 kts | 38° |
| 2026-05-05 09:30 | 25.59828 | 116.67261 | 11744 ft | 256 kts | 46° |
| 2026-05-05 09:30 | 25.61001 | 116.68769 | 12123 ft | 263 kts | 43° |
| 2026-05-05 09:30 | 25.62243 | 116.70221 | 12631 ft | 262 kts | 41° |
| 2026-05-05 09:30 | 25.63520 | 116.71670 | 13094 ft | 264 kts | 41° |
| 2026-05-05 09:31 | 25.64815 | 116.73141 | 13532 ft | 269 kts | 44° |
| 2026-05-05 09:31 | 25.65987 | 116.74794 | 13877 ft | 279 kts | 52° |
| 2026-05-05 09:31 | 25.67110 | 116.76639 | 13984 ft | 298 kts | 53° |
| 2026-05-05 09:31 | 25.68287 | 116.78616 | 14100 ft | 317 kts | 54° |
| 2026-05-05 09:32 | 25.69530 | 116.80694 | 14168 ft | 340 kts | 54° |
| 2026-05-05 09:32 | 25.70897 | 116.82946 | 14279 ft | 364 kts | 54° |
| 2026-05-05 09:32 | 25.72350 | 116.85352 | 14475 ft | 385 kts | 54° |
| 2026-05-05 09:32 | 25.73875 | 116.87880 | 14622 ft | 404 kts | 54° |
| 2026-05-05 09:33 | 25.75464 | 116.90517 | 14940 ft | 416 kts | 54° |
| 2026-05-05 09:33 | 25.76534 | 116.92294 | 15303 ft | 419 kts | 54° |
| 2026-05-05 09:33 | 25.78690 | 116.95876 | 16123 ft | 423 kts | 54° |
| 2026-05-05 09:33 | 25.80336 | 116.98605 | 16632 ft | 428 kts | 54° |
| 2026-05-05 09:34 | 25.81440 | 117.00433 | 16922 ft | 432 kts | 53° |
| 2026-05-05 09:34 | 25.83124 | 117.03223 | 17417 ft | 438 kts | 54° |
| 2026-05-05 09:34 | 25.84830 | 117.06049 | 17967 ft | 442 kts | 53° |
| 2026-05-05 09:34 | 25.86654 | 117.08797 | 18470 ft | 444 kts | 49° |
| 2026-05-05 09:35 | 25.88633 | 117.11446 | 18936 ft | 446 kts | 46° |
| 2026-05-05 09:35 | 25.93412 | 117.17534 | 20014 ft | 454 kts | 45° |
| 2026-05-05 09:35 | 25.94815 | 117.19331 | 20312 ft | 456 kts | 45° |
| 2026-05-05 09:36 | 25.97566 | 117.22893 | 20939 ft | 461 kts | 46° |
| 2026-05-05 09:36 | 25.98945 | 117.24697 | 21245 ft | 463 kts | 46° |
| 2026-05-05 09:36 | 26.01036 | 117.27451 | 21541 ft | 469 kts | 46° |
| 2026-05-05 09:36 | 26.03145 | 117.30241 | 22013 ft | 470 kts | 46° |
| 2026-05-05 09:37 | 26.05250 | 117.33030 | 22529 ft | 471 kts | 46° |
| 2026-05-05 09:37 | 26.07363 | 117.35832 | 22932 ft | 475 kts | 46° |
| 2026-05-05 09:37 | 26.09496 | 117.38660 | 23303 ft | 479 kts | 46° |
| 2026-05-05 09:37 | 26.11620 | 117.41478 | 23647 ft | 483 kts | 46° |
| 2026-05-05 09:38 | 26.13786 | 117.44351 | 23969 ft | 485 kts | 46° |
| 2026-05-05 09:38 | 26.15960 | 117.47239 | 24314 ft | 488 kts | 45° |
| 2026-05-05 09:38 | 26.18144 | 117.50142 | 24629 ft | 491 kts | 45° |
| 2026-05-05 09:38 | 26.20340 | 117.53062 | 24932 ft | 494 kts | 45° |
| 2026-05-05 09:39 | 26.22551 | 117.56002 | 25256 ft | 496 kts | 45° |
| 2026-05-05 09:39 | 26.24770 | 117.58951 | 25546 ft | 498 kts | 45° |
| 2026-05-05 09:39 | 26.26997 | 117.61914 | 25810 ft | 500 kts | 45° |
| 2026-05-05 09:39 | 26.29212 | 117.64867 | 26053 ft | 505 kts | 45° |
| 2026-05-05 09:40 | 26.31473 | 117.67884 | 26318 ft | 508 kts | 46° |
| 2026-05-05 09:40 | 26.33738 | 117.70913 | 26642 ft | 510 kts | 45° |
| 2026-05-05 09:40 | 26.36016 | 117.73956 | 26914 ft | 513 kts | 45° |
| 2026-05-05 09:40 | 26.38309 | 117.77019 | 27166 ft | 516 kts | 45° |
| 2026-05-05 09:41 | 26.40615 | 117.80103 | 27425 ft | 519 kts | 45° |
| 2026-05-05 09:41 | 26.42933 | 117.83204 | 27692 ft | 522 kts | 45° |
| 2026-05-05 09:41 | 26.45232 | 117.86286 | 27933 ft | 525 kts | 45° |
| 2026-05-05 09:41 | 26.47577 | 117.89428 | 28175 ft | 527 kts | 45° |
| 2026-05-05 09:42 | 26.49929 | 117.92581 | 28482 ft | 529 kts | 44° |
| 2026-05-05 09:42 | 26.52556 | 117.95398 | 28711 ft | 519 kts | 28° |
| 2026-05-05 09:42 | 26.55669 | 117.97307 | 28931 ft | 505 kts | 13° |
| 2026-05-05 09:42 | 26.58947 | 117.98395 | 29079 ft | 492 kts | 359° |
| 2026-05-05 09:43 | 26.62309 | 117.98648 | 29326 ft | 478 kts | 350° |
| 2026-05-05 09:43 | 26.65630 | 117.98603 | 29741 ft | 475 kts | 349° |
| 2026-05-05 09:43 | 26.68927 | 117.98523 | 30136 ft | 473 kts | 348° |
| 2026-05-05 09:43 | 26.72220 | 117.98442 | 30394 ft | 474 kts | 348° |
| 2026-05-05 09:44 | 26.75522 | 117.98373 | 30661 ft | 475 kts | 349° |
| 2026-05-05 09:44 | 26.78785 | 117.98322 | 30955 ft | 474 kts | 349° |
| 2026-05-05 09:44 | 26.82078 | 117.98284 | 31261 ft | 473 kts | 349° |
| 2026-05-05 09:44 | 26.85370 | 117.98254 | 31564 ft | 473 kts | 349° |
| 2026-05-05 09:45 | 26.88657 | 117.98229 | 31887 ft | 472 kts | 350° |
| 2026-05-05 09:45 | 26.91941 | 117.98205 | 32218 ft | 471 kts | 350° |
| 2026-05-05 09:45 | 26.95215 | 117.98182 | 32531 ft | 470 kts | 350° |
| 2026-05-05 09:45 | 26.98493 | 117.98157 | 32814 ft | 470 kts | 350° |
| 2026-05-05 09:46 | 27.01719 | 117.98131 | 33088 ft | 469 kts | 350° |
| 2026-05-05 09:46 | 27.04998 | 117.98104 | 33094 ft | 472 kts | 350° |
| 2026-05-05 09:46 | 27.11560 | 117.98051 | 33109 ft | 471 kts | 350° |
| 2026-05-05 09:47 | 27.18086 | 117.98002 | 33100 ft | 466 kts | 350° |
| 2026-05-05 09:47 | 27.24547 | 117.97955 | 33106 ft | 463 kts | 350° |
| 2026-05-05 09:48 | 27.30955 | 117.97901 | 33103 ft | 464 kts | 350° |
| 2026-05-05 09:48 | 27.37350 | 117.97845 | 33107 ft | 465 kts | 350° |
| 2026-05-05 09:49 | 27.43809 | 117.97790 | 33113 ft | 468 kts | 351° |
| 2026-05-05 09:49 | 27.50403 | 117.97736 | 33093 ft | 471 kts | 351° |
| 2026-05-05 09:50 | 27.56959 | 117.97685 | 33112 ft | 472 kts | 351° |
| 2026-05-05 09:50 | 27.63546 | 117.97632 | 33112 ft | 473 kts | 351° |
| 2026-05-05 09:51 | 27.70110 | 117.97580 | 33115 ft | 474 kts | 351° |
| 2026-05-05 09:51 | 27.76708 | 117.97528 | 33110 ft | 474 kts | 351° |
| 2026-05-05 09:52 | 27.83259 | 117.97477 | 33100 ft | 472 kts | 351° |
| 2026-05-05 09:52 | 27.89833 | 117.97423 | 33104 ft | 472 kts | 351° |
| 2026-05-05 09:53 | 27.96381 | 117.97372 | 33074 ft | 468 kts | 351° |
| 2026-05-05 09:53 | 28.02834 | 117.97319 | 33095 ft | 466 kts | 352° |
| 2026-05-05 09:54 | 28.09311 | 117.97268 | 33089 ft | 462 kts | 352° |
| 2026-05-05 09:54 | 28.15733 | 117.97214 | 33070 ft | 460 kts | 352° |
| 2026-05-05 09:55 | 28.22101 | 117.97160 | 33077 ft | 461 kts | 352° |
| 2026-05-05 09:55 | 28.28535 | 117.97106 | 33067 ft | 463 kts | 352° |
| 2026-05-05 09:56 | 28.34989 | 117.97054 | 33058 ft | 464 kts | 352° |
| 2026-05-05 09:56 | 28.41406 | 117.98128 | 33062 ft | 488 kts | 18° |
| 2026-05-05 09:57 | 28.44358 | 118.00112 | 33041 ft | 502 kts | 35° |
| 2026-05-05 09:57 | 28.46847 | 118.02937 | 33090 ft | 507 kts | 43° |
| 2026-05-05 09:57 | 28.51568 | 118.08939 | 33060 ft | 509 kts | 44° |
| 2026-05-05 09:58 | 28.56266 | 118.14910 | 33054 ft | 509 kts | 44° |
| 2026-05-05 09:58 | 28.61047 | 118.20859 | 33046 ft | 509 kts | 43° |
| 2026-05-05 09:59 | 28.65845 | 118.26779 | 33052 ft | 508 kts | 43° |
| 2026-05-05 09:59 | 28.70624 | 118.32679 | 33049 ft | 506 kts | 43° |
| 2026-05-05 10:00 | 28.75366 | 118.38548 | 33049 ft | 505 kts | 44° |
| 2026-05-05 10:00 | 28.80122 | 118.44448 | 33050 ft | 504 kts | 44° |
| 2026-05-05 10:01 | 28.84828 | 118.50295 | 33055 ft | 503 kts | 44° |
| 2026-05-05 10:01 | 28.89556 | 118.56177 | 33036 ft | 502 kts | 44° |
| 2026-05-05 10:02 | 28.94269 | 118.62049 | 33047 ft | 502 kts | 44° |
| 2026-05-05 10:02 | 28.98981 | 118.67928 | 33051 ft | 501 kts | 44° |
| 2026-05-05 10:03 | 29.03662 | 118.73777 | 33054 ft | 501 kts | 44° |
| 2026-05-05 10:03 | 29.08357 | 118.79657 | 33067 ft | 499 kts | 44° |
| 2026-05-05 10:04 | 29.13021 | 118.85500 | 33053 ft | 500 kts | 44° |
| 2026-05-05 10:04 | 29.17716 | 118.91390 | 33041 ft | 501 kts | 44° |
| 2026-05-05 10:05 | 29.22419 | 118.97302 | 33064 ft | 501 kts | 44° |
| 2026-05-05 10:05 | 29.27082 | 119.03174 | 33058 ft | 502 kts | 44° |
| 2026-05-05 10:06 | 29.31776 | 119.09104 | 33059 ft | 502 kts | 45° |
| 2026-05-05 10:06 | 29.36469 | 119.15036 | 33054 ft | 501 kts | 45° |
| 2026-05-05 10:07 | 29.41148 | 119.20970 | 33052 ft | 502 kts | 45° |
| 2026-05-05 10:07 | 29.45804 | 119.26885 | 33052 ft | 503 kts | 45° |
| 2026-05-05 10:08 | 29.50493 | 119.32851 | 33064 ft | 504 kts | 45° |
| 2026-05-05 10:08 | 29.55198 | 119.38844 | 33051 ft | 504 kts | 45° |
| 2026-05-05 10:09 | 29.59859 | 119.44790 | 33046 ft | 504 kts | 45° |
| 2026-05-05 10:09 | 29.64553 | 119.50768 | 33061 ft | 504 kts | 45° |
| 2026-05-05 10:10 | 29.69223 | 119.56797 | 33063 ft | 504 kts | 45° |
| 2026-05-05 10:10 | 29.73850 | 119.62789 | 33052 ft | 504 kts | 45° |
| 2026-05-05 10:11 | 29.79076 | 119.68026 | 33051 ft | 494 kts | 27° |
| 2026-05-05 10:11 | 29.85012 | 119.71976 | 33058 ft | 492 kts | 25° |
| 2026-05-05 10:12 | 29.90971 | 119.75863 | 33054 ft | 492 kts | 25° |
| 2026-05-05 10:12 | 29.96864 | 119.79785 | 33047 ft | 492 kts | 26° |
| 2026-05-05 10:13 | 30.02781 | 119.83771 | 33054 ft | 492 kts | 26° |
| 2026-05-05 10:13 | 30.08683 | 119.87761 | 33044 ft | 491 kts | 26° |
| 2026-05-05 10:14 | 30.14544 | 119.91724 | 33041 ft | 490 kts | 26° |
| 2026-05-05 10:14 | 30.20434 | 119.95711 | 33041 ft | 490 kts | 26° |
| 2026-05-05 10:15 | 30.26323 | 119.99701 | 33031 ft | 490 kts | 26° |
| 2026-05-05 10:15 | 30.32157 | 120.03661 | 33043 ft | 489 kts | 26° |
| 2026-05-05 10:16 | 30.38035 | 120.07657 | 33040 ft | 489 kts | 26° |
| 2026-05-05 10:16 | 30.43901 | 120.11650 | 33038 ft | 489 kts | 26° |
| 2026-05-05 10:17 | 30.49772 | 120.15650 | 33042 ft | 489 kts | 26° |
| 2026-05-05 10:17 | 30.55566 | 120.19604 | 33041 ft | 488 kts | 26° |
| 2026-05-05 10:18 | 30.61420 | 120.23605 | 33038 ft | 488 kts | 26° |
| 2026-05-05 10:18 | 30.67271 | 120.27610 | 33044 ft | 488 kts | 26° |
| 2026-05-05 10:19 | 30.73073 | 120.31589 | 33043 ft | 487 kts | 27° |
| 2026-05-05 10:19 | 30.78910 | 120.35596 | 33046 ft | 487 kts | 27° |
| 2026-05-05 10:20 | 30.84743 | 120.39607 | 33046 ft | 486 kts | 27° |
| 2026-05-05 10:20 | 30.87430 | 120.41932 | 33042 ft | 492 kts | 42° |
| 2026-05-05 10:20 | 30.89630 | 120.44989 | 33058 ft | 495 kts | 55° |
| 2026-05-05 10:21 | 30.91210 | 120.48554 | 33047 ft | 497 kts | 70° |
| 2026-05-05 10:21 | 30.92194 | 120.52420 | 33071 ft | 497 kts | 75° |
| 2026-05-05 10:21 | 30.93954 | 120.60213 | 33054 ft | 498 kts | 75° |
| 2026-05-05 10:22 | 30.95807 | 120.67983 | 33054 ft | 498 kts | 74° |
| 2026-05-05 10:22 | 30.97703 | 120.75689 | 33070 ft | 499 kts | 74° |
| 2026-05-05 10:23 | 30.99622 | 120.83479 | 33068 ft | 499 kts | 74° |
| 2026-05-05 10:23 | 31.01536 | 120.91266 | 33076 ft | 500 kts | 74° |
| 2026-05-05 10:24 | 31.03436 | 120.99021 | 33079 ft | 501 kts | 74° |
| 2026-05-05 10:24 | 31.05347 | 121.06852 | 33092 ft | 502 kts | 74° |
| 2026-05-05 10:25 | 31.07244 | 121.14641 | 33093 ft | 503 kts | 74° |
| 2026-05-05 10:25 | 31.09262 | 121.22469 | 33096 ft | 504 kts | 72° |
| 2026-05-05 10:26 | 31.10686 | 121.26184 | 33074 ft | 502 kts | 55° |
| 2026-05-05 10:26 | 31.12905 | 121.29284 | 33097 ft | 496 kts | 38° |
| 2026-05-05 10:26 | 31.15701 | 121.31574 | 33104 ft | 488 kts | 22° |
| 2026-05-05 10:26 | 31.18830 | 121.33026 | 33089 ft | 480 kts | 9° |
| 2026-05-05 10:27 | 31.22055 | 121.33599 | 33090 ft | 470 kts | 355° |
| 2026-05-05 10:27 | 31.25280 | 121.33619 | 33085 ft | 473 kts | 2° |
| 2026-05-05 10:27 | 31.28476 | 121.34701 | 33114 ft | 486 kts | 23° |
| 2026-05-05 10:27 | 31.31249 | 121.36998 | 33085 ft | 495 kts | 44° |
| 2026-05-05 10:28 | 31.33260 | 121.40273 | 33095 ft | 500 kts | 64° |
| 2026-05-05 10:28 | 31.34264 | 121.44092 | 33097 ft | 499 kts | 85° |
| 2026-05-05 10:28 | 31.34218 | 121.48132 | 33117 ft | 495 kts | 99° |
| 2026-05-05 10:28 | 31.33835 | 121.52133 | 33087 ft | 497 kts | 95° |
| 2026-05-05 10:29 | 31.33279 | 121.60208 | 33092 ft | 500 kts | 92° |
| 2026-05-05 10:29 | 31.34065 | 121.68305 | 33108 ft | 503 kts | 79° |
| 2026-05-05 10:30 | 31.36286 | 121.75945 | 33113 ft | 501 kts | 54° |
| 2026-05-05 10:30 | 31.38519 | 121.79044 | 33090 ft | 497 kts | 38° |
| 2026-05-05 10:30 | 31.41271 | 121.81341 | 33108 ft | 489 kts | 23° |
| 2026-05-05 10:31 | 31.44395 | 121.82813 | 33125 ft | 480 kts | 10° |
| 2026-05-05 10:31 | 31.47658 | 121.83421 | 33103 ft | 470 kts | 355° |
| 2026-05-05 10:31 | 31.54107 | 121.82785 | 33112 ft | 464 kts | 347° |
| 2026-05-05 10:32 | 31.60493 | 121.81873 | 33107 ft | 466 kts | 348° |
| 2026-05-05 10:32 | 31.66960 | 121.81028 | 33113 ft | 467 kts | 348° |
| 2026-05-05 10:33 | 31.73445 | 121.80236 | 33113 ft | 468 kts | 349° |
| 2026-05-05 10:33 | 31.79877 | 121.79456 | 33107 ft | 467 kts | 349° |
| 2026-05-05 10:34 | 31.86342 | 121.78666 | 33110 ft | 466 kts | 349° |
| 2026-05-05 10:34 | 31.92787 | 121.77891 | 33104 ft | 464 kts | 349° |
| 2026-05-05 10:35 | 31.99157 | 121.77145 | 33104 ft | 462 kts | 349° |
| 2026-05-05 10:35 | 32.05540 | 121.76396 | 33103 ft | 460 kts | 350° |
| 2026-05-05 10:36 | 32.11898 | 121.75646 | 33104 ft | 458 kts | 350° |
| 2026-05-05 10:36 | 32.18189 | 121.74901 | 33106 ft | 456 kts | 350° |
| 2026-05-05 10:37 | 32.24507 | 121.74151 | 33101 ft | 455 kts | 350° |
| 2026-05-05 10:37 | 32.30801 | 121.73403 | 33103 ft | 454 kts | 350° |
| 2026-05-05 10:38 | 32.37045 | 121.72661 | 33097 ft | 453 kts | 350° |
| 2026-05-05 10:38 | 32.43329 | 121.71912 | 33095 ft | 453 kts | 351° |
| 2026-05-05 10:39 | 32.49609 | 121.71163 | 33094 ft | 453 kts | 351° |
| 2026-05-05 10:39 | 32.55849 | 121.70418 | 33095 ft | 453 kts | 351° |
| 2026-05-05 10:40 | 32.62135 | 121.69666 | 33097 ft | 453 kts | 351° |
| 2026-05-05 10:40 | 32.68381 | 121.68919 | 33093 ft | 453 kts | 351° |
| 2026-05-05 10:41 | 32.74670 | 121.68165 | 33087 ft | 453 kts | 351° |
| 2026-05-05 10:41 | 32.80944 | 121.67411 | 33091 ft | 453 kts | 351° |
| 2026-05-05 10:42 | 32.90304 | 121.66285 | 33097 ft | 452 kts | 351° |
| 2026-05-05 10:43 | 32.96570 | 121.65530 | 33087 ft | 452 kts | 351° |
| 2026-05-05 10:43 | 33.02784 | 121.64781 | 33091 ft | 451 kts | 351° |
| 2026-05-05 10:44 | 33.09025 | 121.64026 | 33091 ft | 450 kts | 351° |
| 2026-05-05 10:44 | 33.15253 | 121.63273 | 33090 ft | 450 kts | 352° |
| 2026-05-05 10:45 | 33.21473 | 121.62519 | 33089 ft | 449 kts | 352° |
| 2026-05-05 10:45 | 33.27501 | 121.61032 | 33079 ft | 443 kts | 336° |
| 2026-05-05 10:46 | 33.33142 | 121.58118 | 33083 ft | 441 kts | 334° |
| 2026-05-05 10:46 | 33.38715 | 121.55171 | 33088 ft | 440 kts | 334° |
| 2026-05-05 10:47 | 33.44328 | 121.52253 | 33084 ft | 440 kts | 335° |
| 2026-05-05 10:47 | 33.49943 | 121.49358 | 33081 ft | 439 kts | 335° |
| 2026-05-05 10:48 | 33.55524 | 121.46478 | 33077 ft | 438 kts | 335° |
| 2026-05-05 10:48 | 33.61127 | 121.43581 | 33077 ft | 438 kts | 335° |
| 2026-05-05 10:49 | 33.66713 | 121.40688 | 33076 ft | 437 kts | 335° |
| 2026-05-05 10:49 | 33.72287 | 121.37964 | 33076 ft | 437 kts | 337° |
| 2026-05-05 10:50 | 33.77958 | 121.35327 | 33073 ft | 437 kts | 338° |
| 2026-05-05 10:50 | 33.83623 | 121.32681 | 33071 ft | 436 kts | 338° |
| 2026-05-05 10:51 | 33.89271 | 121.30016 | 33069 ft | 435 kts | 338° |
| 2026-05-05 10:51 | 33.94865 | 121.27363 | 33069 ft | 435 kts | 338° |
| 2026-05-05 10:52 | 34.00493 | 121.24688 | 33063 ft | 434 kts | 338° |
| 2026-05-05 10:52 | 34.06104 | 121.22017 | 33063 ft | 433 kts | 338° |
| 2026-05-05 10:53 | 34.11668 | 121.19365 | 33062 ft | 432 kts | 338° |
| 2026-05-05 10:53 | 34.17259 | 121.16697 | 33059 ft | 432 kts | 338° |
| 2026-05-05 10:54 | 34.22839 | 121.14030 | 33061 ft | 431 kts | 338° |
| 2026-05-05 10:54 | 34.28421 | 121.11358 | 33053 ft | 430 kts | 338° |
| 2026-05-05 10:55 | 34.33943 | 121.08711 | 33054 ft | 430 kts | 338° |
| 2026-05-05 10:55 | 34.39508 | 121.06040 | 33051 ft | 429 kts | 338° |
| 2026-05-05 10:56 | 34.45052 | 121.03376 | 33048 ft | 428 kts | 339° |
| 2026-05-05 10:56 | 34.50555 | 121.00727 | 33047 ft | 428 kts | 339° |
| 2026-05-05 10:57 | 34.56081 | 120.98063 | 33046 ft | 427 kts | 339° |
| 2026-05-05 10:57 | 34.61597 | 120.95400 | 33041 ft | 426 kts | 339° |
| 2026-05-05 10:58 | 34.67071 | 120.92754 | 33043 ft | 425 kts | 339° |
| 2026-05-05 10:58 | 34.72565 | 120.90094 | 33042 ft | 425 kts | 339° |
| 2026-05-05 10:59 | 34.78057 | 120.87431 | 33036 ft | 424 kts | 339° |
| 2026-05-05 10:59 | 34.83504 | 120.84787 | 33034 ft | 424 kts | 339° |
| 2026-05-05 11:00 | 34.88974 | 120.82127 | 33033 ft | 423 kts | 339° |
| 2026-05-05 11:00 | 34.94439 | 120.79466 | 33029 ft | 423 kts | 339° |
| 2026-05-05 11:01 | 34.99898 | 120.76804 | 33028 ft | 422 kts | 339° |
| 2026-05-05 11:01 | 35.05315 | 120.74159 | 33023 ft | 422 kts | 339° |
| 2026-05-05 11:02 | 35.10763 | 120.71494 | 33026 ft | 421 kts | 339° |
| 2026-05-05 11:02 | 35.16201 | 120.68832 | 33029 ft | 422 kts | 339° |
| 2026-05-05 11:03 | 35.21658 | 120.66183 | 33031 ft | 421 kts | 339° |
| 2026-05-05 11:03 | 35.27058 | 120.63561 | 33018 ft | 420 kts | 339° |
| 2026-05-05 11:04 | 35.32475 | 120.60925 | 33017 ft | 418 kts | 339° |
| 2026-05-05 11:04 | 35.37880 | 120.58290 | 33013 ft | 418 kts | 339° |
| 2026-05-05 11:05 | 35.43290 | 120.55679 | 33014 ft | 417 kts | 339° |
| 2026-05-05 11:05 | 35.48655 | 120.53091 | 33013 ft | 417 kts | 339° |
| 2026-05-05 11:06 | 35.54059 | 120.50460 | 33012 ft | 417 kts | 339° |
| 2026-05-05 11:06 | 35.59425 | 120.47841 | 33009 ft | 418 kts | 339° |
| 2026-05-05 11:07 | 35.64827 | 120.45202 | 33011 ft | 418 kts | 339° |
| 2026-05-05 11:07 | 35.70235 | 120.42557 | 33007 ft | 418 kts | 338° |
| 2026-05-05 11:08 | 35.75644 | 120.39908 | 33008 ft | 418 kts | 338° |
| 2026-05-05 11:08 | 35.81021 | 120.37270 | 33007 ft | 419 kts | 338° |
| 2026-05-05 11:09 | 35.86436 | 120.34610 | 33004 ft | 419 kts | 338° |
| 2026-05-05 11:09 | 35.91819 | 120.31963 | 32999 ft | 419 kts | 338° |
| 2026-05-05 11:10 | 35.97412 | 120.30033 | 33006 ft | 419 kts | 353° |
| 2026-05-05 11:10 | 36.03248 | 120.30267 | 32995 ft | 423 kts | 9° |
| 2026-05-05 11:11 | 36.08964 | 120.31783 | 32994 ft | 423 kts | 10° |
| 2026-05-05 11:11 | 36.14720 | 120.33338 | 32979 ft | 423 kts | 9° |
| 2026-05-05 11:12 | 36.20486 | 120.34841 | 32978 ft | 423 kts | 9° |
| 2026-05-05 11:12 | 36.26214 | 120.36321 | 32973 ft | 423 kts | 9° |
| 2026-05-05 11:13 | 36.31944 | 120.38074 | 32972 ft | 425 kts | 14° |
| 2026-05-05 11:13 | 36.37545 | 120.40279 | 32969 ft | 425 kts | 15° |
| 2026-05-05 11:14 | 36.43178 | 120.42513 | 32980 ft | 425 kts | 14° |
| 2026-05-05 11:14 | 36.48830 | 120.44707 | 32973 ft | 425 kts | 14° |
| 2026-05-05 11:15 | 36.54490 | 120.46894 | 32984 ft | 426 kts | 14° |
| 2026-05-05 11:15 | 36.60102 | 120.49110 | 32972 ft | 427 kts | 15° |
| 2026-05-05 11:16 | 36.65724 | 120.51508 | 32977 ft | 427 kts | 16° |
| 2026-05-05 11:16 | 36.71349 | 120.53927 | 32975 ft | 427 kts | 16° |
| 2026-05-05 11:17 | 36.76935 | 120.56312 | 32984 ft | 427 kts | 15° |
| 2026-05-05 11:17 | 36.82567 | 120.58713 | 32985 ft | 428 kts | 15° |
| 2026-05-05 11:18 | 36.88207 | 120.61119 | 32984 ft | 428 kts | 16° |
| 2026-05-05 11:18 | 36.93840 | 120.63372 | 32977 ft | 426 kts | 9° |
| 2026-05-05 11:19 | 36.99680 | 120.64508 | 32981 ft | 424 kts | 5° |
| 2026-05-05 11:19 | 37.05528 | 120.65534 | 32983 ft | 425 kts | 5° |
| 2026-05-05 11:20 | 37.11344 | 120.66589 | 32984 ft | 425 kts | 6° |
| 2026-05-05 11:20 | 37.17204 | 120.67678 | 32984 ft | 425 kts | 6° |
| 2026-05-05 11:21 | 37.23059 | 120.68775 | 32978 ft | 425 kts | 6° |
| 2026-05-05 11:21 | 37.28926 | 120.69877 | 32980 ft | 426 kts | 6° |
| 2026-05-05 11:22 | 37.34750 | 120.70971 | 32974 ft | 426 kts | 6° |
| 2026-05-05 11:22 | 37.40612 | 120.72073 | 32977 ft | 425 kts | 6° |
| 2026-05-05 11:23 | 37.46430 | 120.73169 | 32966 ft | 426 kts | 6° |
| 2026-05-05 11:23 | 37.52300 | 120.74277 | 32959 ft | 426 kts | 6° |
| 2026-05-05 11:24 | 37.58109 | 120.75863 | 32967 ft | 431 kts | 17° |
| 2026-05-05 11:24 | 37.63426 | 120.79344 | 32964 ft | 437 kts | 30° |
| 2026-05-05 11:25 | 37.68475 | 120.83654 | 32950 ft | 438 kts | 30° |
| 2026-05-05 11:25 | 37.73530 | 120.87994 | 32952 ft | 438 kts | 30° |
| 2026-05-05 11:26 | 37.78564 | 120.92272 | 32948 ft | 439 kts | 30° |
| 2026-05-05 11:26 | 37.83642 | 120.96569 | 32951 ft | 439 kts | 30° |
| 2026-05-05 11:27 | 37.88731 | 121.00877 | 32950 ft | 440 kts | 30° |
| 2026-05-05 11:27 | 37.93786 | 121.05166 | 32950 ft | 440 kts | 30° |
| 2026-05-05 11:28 | 37.98880 | 121.09496 | 32952 ft | 441 kts | 30° |
| 2026-05-05 11:28 | 38.03975 | 121.13834 | 32949 ft | 441 kts | 30° |
| 2026-05-05 11:29 | 38.09050 | 121.18164 | 32947 ft | 442 kts | 30° |
| 2026-05-05 11:29 | 38.14157 | 121.22528 | 32950 ft | 442 kts | 30° |
| 2026-05-05 11:30 | 38.19268 | 121.26903 | 32945 ft | 443 kts | 30° |
| 2026-05-05 11:30 | 38.24350 | 121.31259 | 32948 ft | 443 kts | 30° |
| 2026-05-05 11:31 | 38.29467 | 121.35655 | 32946 ft | 444 kts | 30° |
| 2026-05-05 11:31 | 38.34563 | 121.40040 | 32946 ft | 445 kts | 30° |
| 2026-05-05 11:32 | 38.39579 | 121.44695 | 32936 ft | 450 kts | 40° |
| 2026-05-05 11:32 | 38.43496 | 121.50976 | 32939 ft | 459 kts | 57° |
| 2026-05-05 11:33 | 38.46407 | 121.58252 | 32949 ft | 461 kts | 60° |
| 2026-05-05 11:33 | 38.49231 | 121.65553 | 32955 ft | 462 kts | 60° |
| 2026-05-05 11:34 | 38.52114 | 121.72877 | 32953 ft | 462 kts | 59° |
| 2026-05-05 11:34 | 38.55027 | 121.80204 | 32959 ft | 462 kts | 59° |
| 2026-05-05 11:35 | 38.57919 | 121.87480 | 32963 ft | 463 kts | 60° |
| 2026-05-05 11:35 | 38.60826 | 121.94820 | 32969 ft | 463 kts | 60° |
| 2026-05-05 11:36 | 38.63728 | 122.02168 | 32980 ft | 463 kts | 60° |
| 2026-05-05 11:36 | 38.66611 | 122.09485 | 32979 ft | 463 kts | 60° |
| 2026-05-05 11:37 | 38.70267 | 122.16151 | 32985 ft | 455 kts | 41° |
| 2026-05-05 11:37 | 38.75251 | 122.20985 | 32995 ft | 448 kts | 27° |
| 2026-05-05 11:38 | 38.80608 | 122.25070 | 32983 ft | 448 kts | 27° |
| 2026-05-05 11:38 | 38.85905 | 122.29197 | 32981 ft | 449 kts | 28° |
| 2026-05-05 11:39 | 38.91225 | 122.33413 | 32983 ft | 450 kts | 28° |
| 2026-05-05 11:39 | 38.96553 | 122.37641 | 32987 ft | 450 kts | 28° |
| 2026-05-05 11:40 | 39.01889 | 122.41878 | 32992 ft | 451 kts | 28° |
| 2026-05-05 11:40 | 39.07195 | 122.46100 | 32992 ft | 452 kts | 28° |
| 2026-05-05 11:41 | 39.12543 | 122.50365 | 32994 ft | 452 kts | 28° |
| 2026-05-05 11:41 | 39.17881 | 122.54629 | 32996 ft | 453 kts | 28° |
| 2026-05-05 11:42 | 39.23232 | 122.58912 | 33002 ft | 453 kts | 28° |
| 2026-05-05 11:42 | 39.28627 | 122.63158 | 33002 ft | 453 kts | 26° |
| 2026-05-05 11:43 | 39.34109 | 122.67069 | 33003 ft | 453 kts | 25° |
| 2026-05-05 11:43 | 39.39658 | 122.70951 | 33008 ft | 454 kts | 25° |
| 2026-05-05 11:44 | 39.45199 | 122.74875 | 33009 ft | 454 kts | 25° |
| 2026-05-05 11:44 | 39.50734 | 122.78831 | 33015 ft | 455 kts | 25° |
| 2026-05-05 11:45 | 39.56233 | 122.82776 | 33011 ft | 455 kts | 26° |
| 2026-05-05 11:45 | 39.61779 | 122.86763 | 33019 ft | 456 kts | 26° |
| 2026-05-05 11:46 | 39.67326 | 122.90756 | 33026 ft | 456 kts | 26° |
| 2026-05-05 11:46 | 39.72885 | 122.94764 | 33020 ft | 457 kts | 26° |
| 2026-05-05 11:47 | 39.78404 | 122.98751 | 33028 ft | 457 kts | 26° |
| 2026-05-05 11:47 | 39.83972 | 123.02781 | 33032 ft | 457 kts | 26° |
| 2026-05-05 11:48 | 39.92312 | 123.08832 | 33035 ft | 458 kts | 26° |
| 2026-05-05 11:48 | 39.97839 | 123.12851 | 33038 ft | 458 kts | 26° |
| 2026-05-05 11:49 | 40.03334 | 123.16855 | 33034 ft | 459 kts | 26° |
| 2026-05-05 11:49 | 40.08917 | 123.20901 | 33043 ft | 459 kts | 25° |
| 2026-05-05 11:50 | 40.14480 | 123.24897 | 33032 ft | 459 kts | 25° |
| 2026-05-05 11:50 | 40.20081 | 123.28930 | 33044 ft | 460 kts | 25° |
| 2026-05-05 11:51 | 40.25682 | 123.32977 | 33036 ft | 460 kts | 25° |
| 2026-05-05 11:51 | 40.31287 | 123.37038 | 33042 ft | 460 kts | 25° |
| 2026-05-05 11:52 | 40.36853 | 123.41078 | 33034 ft | 460 kts | 25° |
| 2026-05-05 11:52 | 40.42461 | 123.45156 | 33044 ft | 461 kts | 25° |
| 2026-05-05 11:53 | 40.48045 | 123.49225 | 33043 ft | 461 kts | 25° |
| 2026-05-05 11:53 | 40.53656 | 123.53322 | 33040 ft | 461 kts | 25° |
| 2026-05-05 11:54 | 40.59271 | 123.57428 | 33033 ft | 461 kts | 25° |
| 2026-05-05 11:54 | 40.64875 | 123.61528 | 33044 ft | 461 kts | 25° |
| 2026-05-05 11:55 | 40.69538 | 123.64944 | 33031 ft | 461 kts | 25° |
| 2026-05-05 11:55 | 40.76061 | 123.69736 | 33022 ft | 459 kts | 25° |
| 2026-05-05 11:56 | 40.81667 | 123.73860 | 33030 ft | 463 kts | 25° |
| 2026-05-05 11:56 | 40.87285 | 123.77945 | 33030 ft | 464 kts | 25° |
| 2026-05-05 11:57 | 40.92975 | 123.81987 | 33017 ft | 464 kts | 24° |
| 2026-05-05 11:57 | 40.98667 | 123.86037 | 33016 ft | 464 kts | 24° |
| 2026-05-05 11:58 | 41.04344 | 123.90099 | 33010 ft | 464 kts | 25° |
| 2026-05-05 11:58 | 41.10022 | 123.94177 | 33007 ft | 464 kts | 25° |
| 2026-05-05 11:59 | 41.15663 | 123.98236 | 32997 ft | 465 kts | 24° |
| 2026-05-05 11:59 | 41.21347 | 124.02335 | 32992 ft | 465 kts | 24° |
| 2026-05-05 12:00 | 41.27025 | 124.06437 | 32982 ft | 464 kts | 25° |
| 2026-05-05 12:00 | 41.32668 | 124.10521 | 32973 ft | 464 kts | 25° |
| 2026-05-05 12:01 | 41.38340 | 124.14635 | 32958 ft | 465 kts | 25° |
| 2026-05-05 12:01 | 41.43971 | 124.18765 | 32959 ft | 465 kts | 25° |
| 2026-05-05 12:02 | 41.49608 | 124.23014 | 32944 ft | 465 kts | 25° |
| 2026-05-05 12:02 | 41.55230 | 124.27270 | 32942 ft | 465 kts | 25° |
| 2026-05-05 12:03 | 41.60872 | 124.31535 | 32937 ft | 467 kts | 25° |
| 2026-05-05 12:03 | 41.66535 | 124.35818 | 32937 ft | 468 kts | 25° |
| 2026-05-05 12:04 | 41.72184 | 124.40099 | 32918 ft | 470 kts | 25° |
| 2026-05-05 12:04 | 41.77875 | 124.44422 | 32921 ft | 470 kts | 25° |
| 2026-05-05 12:05 | 41.83560 | 124.48749 | 32912 ft | 470 kts | 25° |
| 2026-05-05 12:05 | 41.89213 | 124.53062 | 32907 ft | 470 kts | 25° |
| 2026-05-05 12:06 | 41.94897 | 124.57406 | 32893 ft | 470 kts | 25° |
| 2026-05-05 12:06 | 41.99625 | 124.61000 | 32891 ft | 468 kts | 24° |
| 2026-05-05 12:07 | 42.06344 | 124.65621 | 32891 ft | 465 kts | 21° |
| 2026-05-05 12:07 | 42.12137 | 124.69502 | 32883 ft | 465 kts | 22° |
| 2026-05-05 12:08 | 42.16938 | 124.72763 | 32882 ft | 465 kts | 22° |
| 2026-05-05 12:08 | 42.23671 | 124.77390 | 32875 ft | 465 kts | 22° |
| 2026-05-05 12:09 | 42.28458 | 124.80695 | 32870 ft | 465 kts | 22° |
| 2026-05-05 12:09 | 42.34177 | 124.84650 | 32870 ft | 465 kts | 22° |